UNTT/TOF METAR and TAF weather

Enter ICAO airport designator
Station Type Date Time Source
UNTT METAR 2022/11/30 09:30 UTC NOAA

UNTT 300930Z 23001MPS CAVOK M20/M25 Q1046 R21/420150 NOSIG RMK QFE769


Station Type Date Time Source
UNTT Decoded METAR 2022/11/30 09:30 UTC NOAA

Station name not available
Nov 30, 2022 - 04:30 AM EST / 2022.11.30 0930 UTC
Wind: from the SW (230 degrees) at 2 MPH (2 KT):0
Visibility: greater than 7 mile(s):0
Temperature: -4 F (-20 C)
Dew Point: -13 F (-25 C)
Relative Humidity: 64%
Pressure (altimeter): 30.89 in. Hg (1046 hPa)
ob: UNTT 300930Z 23001MPS CAVOK M20/M25 Q1046 R21/420150 NOSIG RMK QFE769
cycle: 9

Station Type Date Time Source
UNTT TAF UTC NOAA

Error!

Example: see airport list